Time,TemperatureF,DewpointF,PressureIn,WindDirection,WindDirectionDegrees,WindSpeedMPH,WindSpeedGustMPH,Humidity,HourlyPrecipIn,Conditions,Clouds,dailyrainin,SoftwareType,DateUTC
2013-01-12 00:03:00,27.5,25.3,30.25,SSW,203,3.8,4.7,91,0.00,,,0.00,WUHU216HW,2013-01-12 08:03:00,
2013-01-12 00:08:00,27.5,25.3,30.25,SSW,203,4.7,4.7,91,0.00,,,0.00,WUHU216HW,2013-01-12 08:08:00,
2013-01-12 00:13:00,27.5,25.3,30.25,SSW,203,3.4,4.7,91,0.00,,,0.00,WUHU216HW,2013-01-12 08:13:00,
2013-01-12 00:18:00,27.4,25.1,30.25,South,180,3.8,3.8,91,0.00,,,0.00,WUHU216HW,2013-01-12 08:18:00,
2013-01-12 00:23:00,27.4,25.1,30.25,South,180,0.2,4.0,91,0.00,,,0.00,WUHU216HW,2013-01-12 08:23:00,
2013-01-12 00:28:00,27.4,25.1,30.25,South,180,5.1,5.1,91,0.00,,,0.00,WUHU216HW,2013-01-12 08:28:00,
2013-01-12 00:33:00,27.4,25.1,30.25,SSW,203,5.4,5.4,91,0.00,,,0.00,WUHU216HW,2013-01-12 08:33:00,
2013-01-12 00:38:00,27.4,25.1,30.25,SSW,203,4.3,5.4,91,0.00,,,0.00,WUHU216HW,2013-01-12 08:38:00,
2013-01-12 00:43:00,27.4,25.1,30.25,SSW,203,5.1,5.4,91,0.00,,,0.00,WUHU216HW,2013-01-12 08:43:00,
2013-01-12 00:48:00,27.4,25.1,30.25,SSW,203,4.7,5.1,91,0.00,,,0.00,WUHU216HW,2013-01-12 08:48:00,
2013-01-12 00:53:00,27.4,25.1,30.25,SSW,203,4.7,5.1,91,0.00,,,0.00,WUHU216HW,2013-01-12 08:53:00,
2013-01-12 00:58:00,27.4,25.4,30.25,SSW,203,4.7,5.1,92,0.00,,,0.00,WUHU216HW,2013-01-12 08:58:00,
2013-01-12 01:03:00,27.2,25.2,30.25,SSW,203,4.0,5.1,92,0.00,,,0.00,WUHU216HW,2013-01-12 09:03:00,
2013-01-12 01:08:00,27.2,25.2,30.25,SSW,203,5.4,5.6,92,0.00,,,0.00,WUHU216HW,2013-01-12 09:08:00,
2013-01-12 01:13:00,27.2,25.2,30.25,South,180,4.7,5.6,92,0.00,,,0.00,WUHU216HW,2013-01-12 09:13:00,
2013-01-12 01:18:00,27.2,25.2,30.25,SSW,203,5.4,5.4,92,0.00,,,0.00,WUHU216HW,2013-01-12 09:18:00,
2013-01-12 01:23:00,27.2,25.2,30.26,SSW,203,4.0,5.4,92,0.00,,,0.00,WUHU216HW,2013-01-12 09:23:00,
2013-01-12 01:28:00,27.2,25.2,30.26,South,180,4.0,5.1,92,0.00,,,0.00,WUHU216HW,2013-01-12 09:28:00,
2013-01-12 01:33:00,27.2,25.2,30.25,SSW,203,4.3,4.5,92,0.00,,,0.00,WUHU216HW,2013-01-12 09:33:00,
2013-01-12 01:38:00,27.2,25.2,30.25,South,180,4.5,4.5,92,0.00,,,0.00,WUHU216HW,2013-01-12 09:38:00,
2013-01-12 01:43:00,27.2,25.2,30.25,South,180,3.4,4.5,92,0.00,,,0.00,WUHU216HW,2013-01-12 09:43:00,
2013-01-12 01:48:00,27.0,25.0,30.25,SSW,203,4.3,4.5,92,0.00,,,0.00,WUHU216HW,2013-01-12 09:48:00,
2013-01-12 01:53:00,27.0,25.0,30.25,SSW,203,4.0,4.5,92,0.00,,,0.00,WUHU216HW,2013-01-12 09:53:00,
2013-01-12 01:58:00,27.0,24.8,30.25,ENE,68,0.9,4.5,91,0.00,,,0.00,WUHU216HW,2013-01-12 09:58:00,
2013-01-12 02:03:00,27.0,24.8,30.26,South,180,0.0,3.4,91,0.00,,,0.00,WUHU216HW,2013-01-12 10:03:00,
2013-01-12 02:08:00,26.8,24.9,30.26,SW,225,0.2,0.9,92,0.00,,,0.00,WUHU216HW,2013-01-12 10:08:00,
2013-01-12 02:13:00,26.6,24.7,30.25,SSW,203,3.4,3.8,92,0.00,,,0.00,WUHU216HW,2013-01-12 10:13:00,
2013-01-12 02:18:00,26.6,24.7,30.25,SSW,203,4.5,4.7,92,0.00,,,0.00,WUHU216HW,2013-01-12 10:18:00,
2013-01-12 02:23:00,26.6,24.4,30.26,SSW,203,3.4,4.7,91,0.00,,,0.00,WUHU216HW,2013-01-12 10:23:00,
2013-01-12 02:28:00,26.6,24.4,30.26,South,180,0.4,4.7,91,0.00,,,0.00,WUHU216HW,2013-01-12 10:28:00,
2013-01-12 02:33:00,26.5,24.5,30.26,SW,225,2.2,2.5,92,0.00,,,0.00,WUHU216HW,2013-01-12 10:33:00,
2013-01-12 02:38:00,26.5,24.5,30.26,South,180,1.8,2.5,92,0.00,,,0.00,WUHU216HW,2013-01-12 10:38:00,
2013-01-12 02:43:00,26.3,24.3,30.26,SSW,203,4.0,4.0,92,0.00,,,0.00,WUHU216HW,2013-01-12 10:43:00,
2013-01-12 02:48:00,26.3,24.0,30.26,SSW,203,4.0,4.9,91,0.00,,,0.00,WUHU216HW,2013-01-12 10:48:00,
2013-01-12 02:53:00,26.3,24.0,30.26,SSW,203,4.7,4.9,91,0.00,,,0.00,WUHU216HW,2013-01-12 10:53:00,
2013-01-12 02:58:00,26.3,24.0,30.26,South,180,5.1,5.1,91,0.00,,,0.00,WUHU216HW,2013-01-12 10:58:00,
2013-01-12 03:03:00,26.3,24.0,30.26,SSW,203,2.0,5.4,91,0.00,,,0.00,WUHU216HW,2013-01-12 11:03:00,
2013-01-12 03:08:00,26.3,24.0,30.26,SSW,203,4.0,5.4,91,0.00,,,0.00,WUHU216HW,2013-01-12 11:08:00,
2013-01-12 03:13:00,26.3,24.0,30.26,SSW,203,4.3,4.5,91,0.00,,,0.00,WUHU216HW,2013-01-12 11:13:00,
2013-01-12 03:18:00,26.3,24.0,30.25,SSW,203,3.4,4.5,91,0.00,,,0.00,WUHU216HW,2013-01-12 11:18:00,
2013-01-12 03:23:00,26.1,23.9,30.25,SSW,203,4.9,4.9,91,0.00,,,0.00,WUHU216HW,2013-01-12 11:23:00,
2013-01-12 03:28:00,26.1,23.9,30.26,SSW,203,4.7,4.9,91,0.00,,,0.00,WUHU216HW,2013-01-12 11:28:00,
2013-01-12 03:33:00,26.1,23.9,30.26,South,180,0.0,4.7,91,0.00,,,0.00,WUHU216HW,2013-01-12 11:33:00,
2013-01-12 03:38:00,25.9,23.7,30.25,South,180,4.5,4.7,91,0.00,,,0.00,WUHU216HW,2013-01-12 11:38:00,
2013-01-12 03:43:00,25.9,23.7,30.25,SSW,203,3.6,4.7,91,0.00,,,0.00,WUHU216HW,2013-01-12 11:43:00,
2013-01-12 03:48:00,25.7,23.5,30.25,SSW,203,5.4,5.4,91,0.00,,,0.00,WUHU216HW,2013-01-12 11:48:00,
2013-01-12 03:53:00,25.9,23.7,30.25,SSW,203,6.3,6.3,91,0.00,,,0.00,WUHU216HW,2013-01-12 11:53:00,
2013-01-12 03:58:00,25.9,23.7,30.26,SSW,203,4.7,6.3,91,0.00,,,0.00,WUHU216HW,2013-01-12 11:58:00,
2013-01-12 04:03:00,25.9,24.0,30.25,SSW,203,4.9,6.3,92,0.00,,,0.00,WUHU216HW,2013-01-12 12:03:00,
2013-01-12 04:08:00,25.7,23.8,30.26,SSW,203,4.3,4.9,92,0.00,,,0.00,WUHU216HW,2013-01-12 12:08:00,
2013-01-12 04:13:00,25.7,23.8,30.25,South,180,4.3,4.9,92,0.00,,,0.00,WUHU216HW,2013-01-12 12:13:00,
2013-01-12 04:18:00,25.7,23.8,30.25,SSW,203,4.7,4.9,92,0.00,,,0.00,WUHU216HW,2013-01-12 12:18:00,
2013-01-12 04:23:00,25.9,24.0,30.25,SSE,158,2.2,5.4,92,0.00,,,0.00,WUHU216HW,2013-01-12 12:23:00,
2013-01-12 04:28:00,25.7,23.8,30.26,SSE,158,0.0,5.4,92,0.00,,,0.00,WUHU216HW,2013-01-12 12:28:00,
2013-01-12 04:33:00,25.7,23.8,30.26,SSW,203,4.0,4.0,92,0.00,,,0.00,WUHU216HW,2013-01-12 12:33:00,
2013-01-12 04:38:00,25.7,23.8,30.26,SSW,203,2.5,4.0,92,0.00,,,0.00,WUHU216HW,2013-01-12 12:38:00,
2013-01-12 04:43:00,25.6,23.6,30.26,SSW,203,3.4,3.8,92,0.00,,,0.00,WUHU216HW,2013-01-12 12:43:00,
2013-01-12 04:48:00,25.7,23.8,30.26,South,180,1.8,3.8,92,0.00,,,0.00,WUHU216HW,2013-01-12 12:48:00,
2013-01-12 04:53:00,25.6,23.6,30.26,SSE,158,0.0,3.4,92,0.00,,,0.00,WUHU216HW,2013-01-12 12:53:00,
2013-01-12 04:58:00,25.6,23.6,30.26,SSW,203,1.1,1.8,92,0.00,,,0.00,WUHU216HW,2013-01-12 12:58:00,
2013-01-12 05:03:00,25.6,23.6,30.26,NNE,23,0.0,1.1,92,0.00,,,0.00,WUHU216HW,2013-01-12 13:03:00,
2013-01-12 05:08:00,25.6,23.6,30.26,ESE,113,0.4,0.9,92,0.00,,,0.00,WUHU216HW,2013-01-12 13:08:00,
2013-01-12 05:13:00,25.6,23.6,30.25,SE,135,1.3,1.3,92,0.00,,,0.00,WUHU216HW,2013-01-12 13:13:00,
2013-01-12 05:18:00,25.4,23.1,30.26,SSE,158,1.1,1.8,91,0.00,,,0.00,WUHU216HW,2013-01-12 13:18:00,
2013-01-12 05:23:00,25.2,23.0,30.26,SSW,203,3.4,3.6,91,0.00,,,0.00,WUHU216HW,2013-01-12 13:23:00,
2013-01-12 05:28:00,25.4,23.4,30.25,SSW,203,1.3,3.6,92,0.00,,,0.00,WUHU216HW,2013-01-12 13:28:00,
2013-01-12 05:33:00,25.6,23.6,30.26,South,180,3.4,3.4,92,0.00,,,0.00,WUHU216HW,2013-01-12 13:33:00,
2013-01-12 05:38:00,25.7,23.8,30.25,SE,135,2.5,4.9,92,0.00,,,0.00,WUHU216HW,2013-01-12 13:38:00,
2013-01-12 05:43:00,26.1,24.1,30.26,SE,135,0.9,4.9,92,0.00,,,0.00,WUHU216HW,2013-01-12 13:43:00,
2013-01-12 05:48:00,26.3,24.3,30.26,SW,225,1.1,3.4,92,0.00,,,0.00,WUHU216HW,2013-01-12 13:48:00,
2013-01-12 05:53:00,26.5,24.5,30.26,SSW,203,2.9,4.5,92,0.00,,,0.00,WUHU216HW,2013-01-12 13:53:00,
2013-01-12 05:58:00,26.6,24.7,30.26,SE,135,1.8,4.5,92,0.00,,,0.00,WUHU216HW,2013-01-12 13:58:00,
2013-01-12 06:03:00,26.8,24.9,30.26,SSW,203,3.1,4.0,92,0.00,,,0.00,WUHU216HW,2013-01-12 14:03:00,
2013-01-12 06:08:00,26.8,24.9,30.25,South,180,4.5,4.5,92,0.00,,,0.00,WUHU216HW,2013-01-12 14:08:00,
2013-01-12 06:13:00,26.8,24.9,30.26,SSW,203,3.6,4.5,92,0.00,,,0.00,WUHU216HW,2013-01-12 14:13:00,
2013-01-12 06:18:00,26.8,24.9,30.25,SSW,203,2.7,4.3,92,0.00,,,0.00,WUHU216HW,2013-01-12 14:18:00,
2013-01-12 06:23:00,26.6,24.7,30.26,SSE,158,0.9,4.0,92,0.00,,,0.00,WUHU216HW,2013-01-12 14:23:00,
2013-01-12 06:28:00,26.6,24.7,30.26,SSW,203,0.7,2.7,92,0.00,,,0.00,WUHU216HW,2013-01-12 14:28:00,
2013-01-12 06:33:00,26.5,24.5,30.26,SSW,203,2.5,2.5,92,0.00,,,0.00,WUHU216HW,2013-01-12 14:33:00,
2013-01-12 06:38:00,26.5,24.5,30.26,SSW,203,3.1,3.6,92,0.00,,,0.00,WUHU216HW,2013-01-12 14:38:00,
2013-01-12 06:43:00,26.6,24.7,30.26,SSW,203,2.7,3.6,92,0.00,,,0.00,WUHU216HW,2013-01-12 14:43:00,
2013-01-12 06:48:00,26.6,24.7,30.26,SSW,203,2.9,4.0,92,0.00,,,0.00,WUHU216HW,2013-01-12 14:48:00,
2013-01-12 06:53:00,26.6,24.7,30.26,South,180,3.1,4.0,92,0.00,,,0.00,WUHU216HW,2013-01-12 14:53:00,
2013-01-12 06:58:00,26.6,24.7,30.27,West,270,1.1,3.8,92,0.00,,,0.00,WUHU216HW,2013-01-12 14:58:00,
2013-01-12 07:03:00,26.8,24.9,30.27,SSW,203,2.9,4.7,92,0.00,,,0.00,WUHU216HW,2013-01-12 15:03:00,
2013-01-12 07:08:00,27.0,25.0,30.27,SSW,203,1.3,4.7,92,0.00,,,0.00,WUHU216HW,2013-01-12 15:08:00,
2013-01-12 07:13:00,27.0,25.2,30.27,SSE,158,1.8,3.8,93,0.00,,,0.00,WUHU216HW,2013-01-12 15:13:00,
2013-01-12 07:18:00,27.0,25.2,30.27,SE,135,1.1,1.8,93,0.00,,,0.00,WUHU216HW,2013-01-12 15:18:00,
2013-01-12 07:23:00,27.0,25.2,30.28,SSE,158,0.4,1.6,93,0.00,,,0.00,WUHU216HW,2013-01-12 15:23:00,
2013-01-12 07:28:00,27.2,25.4,30.28,SSW,203,0.2,1.6,93,0.00,,,0.00,WUHU216HW,2013-01-12 15:28:00,
2013-01-12 07:33:00,27.2,25.4,30.28,SSW,203,1.6,2.0,93,0.00,,,0.00,WUHU216HW,2013-01-12 15:33:00,
2013-01-12 07:38:00,27.4,25.6,30.28,SW,225,0.9,2.0,93,0.00,,,0.00,WUHU216HW,2013-01-12 15:38:00,
2013-01-12 07:43:00,27.4,25.6,30.29,South,180,1.3,1.8,93,0.00,,,0.00,WUHU216HW,2013-01-12 15:43:00,
2013-01-12 07:48:00,27.5,25.7,30.29,SSW,203,1.1,1.3,93,0.00,,,0.00,WUHU216HW,2013-01-12 15:48:00,
2013-01-12 07:53:00,27.5,25.7,30.29,SSE,158,0.7,1.3,93,0.00,,,0.00,WUHU216HW,2013-01-12 15:53:00,
2013-01-12 07:58:00,27.7,25.9,30.29,SW,225,0.4,1.1,93,0.00,,,0.00,WUHU216HW,2013-01-12 15:58:00,
2013-01-12 08:03:00,27.7,25.9,30.29,SSE,158,0.4,1.8,93,0.00,,,0.00,WUHU216HW,2013-01-12 16:03:00,
2013-01-12 08:08:00,27.7,25.9,30.29,SW,225,0.4,1.8,93,0.00,,,0.00,WUHU216HW,2013-01-12 16:08:00,
2013-01-12 08:13:00,27.7,25.9,30.29,SSW,203,2.5,2.5,93,0.00,,,0.00,WUHU216HW,2013-01-12 16:13:00,
2013-01-12 08:18:00,27.7,25.9,30.30,South,180,3.1,3.6,93,0.00,,,0.00,WUHU216HW,2013-01-12 16:18:00,
2013-01-12 08:23:00,27.7,25.9,30.30,South,180,2.2,3.6,93,0.00,,,0.00,WUHU216HW,2013-01-12 16:23:00,
2013-01-12 08:28:00,27.9,26.1,30.30,South,180,1.3,3.1,93,0.00,,,0.00,WUHU216HW,2013-01-12 16:28:00,
2013-01-12 08:33:00,27.9,26.1,30.30,SSW,203,1.8,2.0,93,0.00,,,0.00,WUHU216HW,2013-01-12 16:33:00,
2013-01-12 08:38:00,28.1,26.3,30.30,South,180,3.4,3.4,93,0.00,,,0.00,WUHU216HW,2013-01-12 16:38:00,
2013-01-12 08:43:00,28.1,26.3,30.30,South,180,2.9,3.4,93,0.00,,,0.00,WUHU216HW,2013-01-12 16:43:00,
2013-01-12 08:48:00,28.1,26.3,30.30,SSW,203,2.0,3.4,93,0.00,,,0.00,WUHU216HW,2013-01-12 16:48:00,
2013-01-12 08:53:00,28.1,26.3,30.31,WSW,248,0.0,3.1,93,0.00,,,0.00,WUHU216HW,2013-01-12 16:53:00,
2013-01-12 08:58:00,28.3,26.5,30.31,ENE,68,0.0,1.8,93,0.00,,,0.00,WUHU216HW,2013-01-12 16:58:00,
2013-01-12 09:03:00,28.3,26.5,30.31,SW,225,1.8,1.8,93,0.00,,,0.00,WUHU216HW,2013-01-12 17:03:00,
2013-01-12 09:08:00,28.4,26.6,30.31,SSW,203,3.1,3.6,93,0.00,,,0.00,WUHU216HW,2013-01-12 17:08:00,
2013-01-12 09:13:00,28.4,26.6,30.31,SSW,203,1.8,4.0,93,0.00,,,0.00,WUHU216HW,2013-01-12 17:13:00,
2013-01-12 09:18:00,28.4,26.6,30.31,South,180,3.6,4.0,93,0.00,,,0.00,WUHU216HW,2013-01-12 17:18:00,
2013-01-12 09:23:00,28.4,26.6,30.31,SSW,203,1.6,3.6,93,0.00,,,0.00,WUHU216HW,2013-01-12 17:23:00,
2013-01-12 09:28:00,28.6,26.8,30.31,SSE,158,1.1,3.1,93,0.00,,,0.00,WUHU216HW,2013-01-12 17:28:00,
2013-01-12 09:33:00,28.4,26.6,30.31,SSW,203,0.4,3.1,93,0.00,,,0.00,WUHU216HW,2013-01-12 17:33:00,
2013-01-12 09:38:00,28.6,26.8,30.31,SSW,203,0.0,2.9,93,0.00,,,0.00,WUHU216HW,2013-01-12 17:38:00,
2013-01-12 09:43:00,28.4,26.6,30.31,SSW,203,1.6,2.5,93,0.00,,,0.00,WUHU216HW,2013-01-12 17:43:00,
2013-01-12 09:48:00,28.4,26.6,30.31,SSW,203,0.2,1.6,93,0.00,,,0.00,WUHU216HW,2013-01-12 17:48:00,
2013-01-12 09:53:00,28.4,26.6,30.31,SSW,203,2.9,2.9,93,0.00,,,0.00,WUHU216HW,2013-01-12 17:53:00,
2013-01-12 09:58:00,28.4,26.6,30.32,North,0,0.4,3.1,93,0.00,,,0.00,WUHU216HW,2013-01-12 17:58:00,
2013-01-12 10:03:00,28.4,26.6,30.32,South,180,2.7,3.1,93,0.00,,,0.00,WUHU216HW,2013-01-12 18:03:00,
2013-01-12 10:08:00,28.4,26.6,30.32,South,180,3.4,3.4,93,0.00,,,0.00,WUHU216HW,2013-01-12 18:08:00,
2013-01-12 10:13:00,28.6,26.8,30.32,South,180,3.4,3.8,93,0.00,,,0.00,WUHU216HW,2013-01-12 18:13:00,
2013-01-12 10:18:00,28.8,27.0,30.32,SSW,203,4.0,4.0,93,0.00,,,0.00,WUHU216HW,2013-01-12 18:18:00,
2013-01-12 10:23:00,29.0,27.2,30.32,South,180,3.6,4.0,93,0.00,,,0.00,WUHU216HW,2013-01-12 18:23:00,
2013-01-12 10:28:00,29.2,27.4,30.32,South,180,3.1,3.6,93,0.00,,,0.00,WUHU216HW,2013-01-12 18:28:00,
2013-01-12 10:33:00,29.3,27.5,30.32,South,180,2.5,3.1,93,0.00,,,0.00,WUHU216HW,2013-01-12 18:33:00,
2013-01-12 10:38:00,29.5,27.7,30.32,SSW,203,2.5,3.4,93,0.00,,,0.00,WUHU216HW,2013-01-12 18:38:00,
2013-01-12 10:43:00,29.5,27.7,30.32,SSW,203,2.9,3.4,93,0.00,,,0.00,WUHU216HW,2013-01-12 18:43:00,
2013-01-12 10:48:00,29.7,27.9,30.32,SSW,203,2.0,3.4,93,0.00,,,0.00,WUHU216HW,2013-01-12 18:48:00,
2013-01-12 10:53:00,29.7,27.9,30.32,SSW,203,2.2,3.1,93,0.00,,,0.00,WUHU216HW,2013-01-12 18:53:00,
2013-01-12 10:58:00,29.9,28.1,30.32,SSW,203,1.8,2.5,93,0.00,,,0.00,WUHU216HW,2013-01-12 18:58:00,
2013-01-12 11:03:00,30.1,28.3,30.32,SSW,203,0.7,2.7,93,0.00,,,0.00,WUHU216HW,2013-01-12 19:03:00,
2013-01-12 11:08:00,30.4,28.6,30.32,SSW,203,0.2,2.7,93,0.00,,,0.00,WUHU216HW,2013-01-12 19:08:00,
2013-01-12 11:13:00,31.0,29.4,30.32,SSE,158,2.0,2.0,94,0.00,,,0.00,WUHU216HW,2013-01-12 19:13:00,
2013-01-12 11:18:00,31.5,30.0,30.32,WSW,248,2.7,2.7,94,0.00,,,0.00,WUHU216HW,2013-01-12 19:18:00,
2013-01-12 11:23:00,32.0,30.2,30.31,SSW,203,0.9,2.7,93,0.00,,,0.00,WUHU216HW,2013-01-12 19:23:00,
2013-01-12 11:28:00,32.4,30.6,30.31,NW,315,1.1,2.0,93,0.00,,,0.00,WUHU216HW,2013-01-12 19:28:00,
2013-01-12 11:33:00,32.9,31.2,30.31,NW,315,4.0,4.0,93,0.00,,,0.00,WUHU216HW,2013-01-12 19:33:00,
2013-01-12 11:38:00,33.5,31.3,30.31,South,180,1.1,4.0,92,0.01,,,0.01,WUHU216HW,2013-01-12 19:38:00,
2013-01-12 11:43:00,33.8,31.7,30.31,North,0,2.5,3.1,92,0.01,,,0.01,WUHU216HW,2013-01-12 19:43:00,
2013-01-12 11:48:00,34.4,31.7,30.31,North,0,2.7,3.4,90,0.01,,,0.01,WUHU216HW,2013-01-12 19:48:00,
2013-01-12 11:53:00,34.9,32.2,30.31,NNE,23,2.5,4.0,90,0.01,,,0.01,WUHU216HW,2013-01-12 19:53:00,
2013-01-12 11:58:00,35.5,32.5,30.31,WNW,293,1.3,5.4,89,0.01,,,0.01,WUHU216HW,2013-01-12 19:58:00,
2013-01-12 12:03:00,35.6,31.5,30.31,NE,45,1.8,5.4,85,0.01,,,0.01,WUHU216HW,2013-01-12 20:03:00,
2013-01-12 12:08:00,36.0,32.4,30.31,SSW,203,1.6,1.8,87,0.01,,,0.01,WUHU216HW,2013-01-12 20:08:00,
2013-01-12 12:13:00,36.2,32.6,30.31,North,0,3.4,3.6,87,0.01,,,0.01,WUHU216HW,2013-01-12 20:13:00,
2013-01-12 12:18:00,36.2,32.6,30.31,North,0,3.1,3.6,87,0.01,,,0.01,WUHU216HW,2013-01-12 20:18:00,
2013-01-12 12:23:00,36.2,32.6,30.30,NE,45,2.0,3.4,87,0.01,,,0.01,WUHU216HW,2013-01-12 20:23:00,
2013-01-12 12:28:00,36.0,31.6,30.30,NNE,23,2.2,4.0,84,0.01,,,0.01,WUHU216HW,2013-01-12 20:28:00,
2013-01-12 12:33:00,36.2,31.8,30.30,North,0,3.4,7.6,84,0.01,,,0.01,WUHU216HW,2013-01-12 20:33:00,
2013-01-12 12:38:00,36.4,31.3,30.30,NE,45,0.7,7.6,82,0.00,,,0.01,WUHU216HW,2013-01-12 20:38:00,
2013-01-12 12:43:00,36.7,31.7,30.30,NNE,23,2.5,5.4,82,0.00,,,0.01,WUHU216HW,2013-01-12 20:43:00,
2013-01-12 12:48:00,37.1,31.8,30.30,North,0,3.1,7.6,81,0.00,,,0.01,WUHU216HW,2013-01-12 20:48:00,
2013-01-12 12:53:00,37.3,32.2,30.30,East,90,1.8,7.6,82,0.00,,,0.01,WUHU216HW,2013-01-12 20:53:00,
2013-01-12 12:58:00,37.4,31.5,30.30,NNE,23,1.6,6.5,79,0.00,,,0.01,WUHU216HW,2013-01-12 20:58:00,
2013-01-12 13:03:00,37.4,30.9,30.30,WNW,293,1.8,3.8,77,0.00,,,0.01,WUHU216HW,2013-01-12 21:03:00,
2013-01-12 13:08:00,37.4,30.9,30.31,West,270,1.3,2.9,77,0.00,,,0.01,WUHU216HW,2013-01-12 21:08:00,
2013-01-12 13:13:00,37.6,31.4,30.31,North,0,4.5,5.4,78,0.00,,,0.01,WUHU216HW,2013-01-12 21:13:00,
2013-01-12 13:18:00,38.0,31.4,30.31,NNE,23,2.0,5.4,77,0.00,,,0.01,WUHU216HW,2013-01-12 21:18:00,
2013-01-12 13:23:00,38.2,31.2,30.31,ESE,113,1.8,4.0,76,0.00,,,0.01,WUHU216HW,2013-01-12 21:23:00,
2013-01-12 13:28:00,38.3,31.8,30.31,NNW,338,4.0,4.3,77,0.00,,,0.01,WUHU216HW,2013-01-12 21:28:00,
2013-01-12 13:33:00,38.5,31.0,30.31,NNE,23,1.3,4.5,74,0.00,,,0.01,WUHU216HW,2013-01-12 21:33:00,
2013-01-12 13:38:00,38.3,30.1,30.31,WNW,293,1.1,4.5,72,0.00,,,0.01,WUHU216HW,2013-01-12 21:38:00,
2013-01-12 13:43:00,38.0,29.8,30.31,West,270,1.1,2.9,72,0.00,,,0.01,WUHU216HW,2013-01-12 21:43:00,
2013-01-12 13:48:00,38.2,30.0,30.32,NW,315,1.1,2.7,72,0.00,,,0.01,WUHU216HW,2013-01-12 21:48:00,
2013-01-12 13:53:00,38.2,30.0,30.32,NNE,23,3.1,4.0,72,0.00,,,0.01,WUHU216HW,2013-01-12 21:53:00,
2013-01-12 13:58:00,38.3,29.8,30.32,NE,45,0.4,4.0,71,0.00,,,0.01,WUHU216HW,2013-01-12 21:58:00,
2013-01-12 14:03:00,38.3,30.1,30.32,NW,315,3.4,3.8,72,0.00,,,0.01,WUHU216HW,2013-01-12 22:03:00,
2013-01-12 14:08:00,38.5,31.0,30.32,NNE,23,4.0,4.0,74,0.00,,,0.01,WUHU216HW,2013-01-12 22:08:00,
2013-01-12 14:13:00,38.7,31.4,30.32,NW,315,2.2,4.0,75,0.00,,,0.01,WUHU216HW,2013-01-12 22:13:00,
2013-01-12 14:18:00,38.5,31.0,30.32,NE,45,1.3,2.5,74,0.00,,,0.01,WUHU216HW,2013-01-12 22:18:00,
2013-01-12 14:23:00,38.5,31.6,30.31,North,0,3.8,4.7,76,0.00,,,0.01,WUHU216HW,2013-01-12 22:23:00,
2013-01-12 14:28:00,38.5,31.0,30.32,NE,45,2.5,4.7,74,0.00,,,0.01,WUHU216HW,2013-01-12 22:28:00,
2013-01-12 14:33:00,38.5,31.2,30.32,North,0,3.4,4.7,75,0.00,,,0.01,WUHU216HW,2013-01-12 22:33:00,
2013-01-12 14:38:00,38.5,31.2,30.32,North,0,4.7,4.7,75,0.00,,,0.01,WUHU216HW,2013-01-12 22:38:00,
2013-01-12 14:43:00,38.3,31.1,30.32,NNE,23,5.4,6.3,75,0.00,,,0.01,WUHU216HW,2013-01-12 22:43:00,
2013-01-12 14:48:00,38.2,31.2,30.32,SW,225,0.2,6.3,76,0.00,,,0.01,WUHU216HW,2013-01-12 22:48:00,
2013-01-12 14:53:00,38.0,31.4,30.32,NNW,338,2.0,2.0,77,0.00,,,0.01,WUHU216HW,2013-01-12 22:53:00,
2013-01-12 14:58:00,37.6,30.8,30.32,NW,315,3.4,3.4,76,0.00,,,0.01,WUHU216HW,2013-01-12 22:58:00,
2013-01-12 15:03:00,37.4,30.2,30.32,WNW,293,2.7,3.4,75,0.00,,,0.01,WUHU216HW,2013-01-12 23:03:00,
2013-01-12 15:08:00,37.3,30.1,30.32,North,0,1.1,2.7,75,0.00,,,0.01,WUHU216HW,2013-01-12 23:08:00,
2013-01-12 15:13:00,37.3,30.4,30.32,NNE,23,2.5,4.3,76,0.00,,,0.01,WUHU216HW,2013-01-12 23:13:00,
2013-01-12 15:18:00,37.4,30.9,30.32,NNW,338,1.3,4.3,77,0.00,,,0.01,WUHU216HW,2013-01-12 23:18:00,
2013-01-12 15:23:00,37.4,30.9,30.32,North,0,0.9,2.7,77,0.00,,,0.01,WUHU216HW,2013-01-12 23:23:00,
2013-01-12 15:28:00,37.3,30.7,30.32,SSW,203,0.4,1.8,77,0.00,,,0.01,WUHU216HW,2013-01-12 23:28:00,
2013-01-12 15:33:00,37.1,30.5,30.32,ENE,68,1.1,2.5,77,0.00,,,0.01,WUHU216HW,2013-01-12 23:33:00,
2013-01-12 15:38:00,36.7,30.2,30.33,North,0,2.7,2.7,77,0.00,,,0.01,WUHU216HW,2013-01-12 23:38:00,
2013-01-12 15:43:00,36.5,30.3,30.32,SSW,203,0.2,2.7,78,0.00,,,0.01,WUHU216HW,2013-01-12 23:43:00,
2013-01-12 15:48:00,36.4,30.2,30.32,SW,225,0.9,1.8,78,0.00,,,0.01,WUHU216HW,2013-01-12 23:48:00,
2013-01-12 15:53:00,36.4,30.2,30.32,NNW,338,0.0,1.8,78,0.00,,,0.01,WUHU216HW,2013-01-12 23:53:00,
2013-01-12 15:58:00,36.2,30.0,30.32,SSW,203,1.1,1.8,78,0.00,,,0.01,WUHU216HW,2013-01-12 23:58:00,
2013-01-12 16:03:00,36.0,29.8,30.32,WNW,293,1.6,2.7,78,0.00,,,0.01,WUHU216HW,2013-01-13 00:03:00,
2013-01-12 16:08:00,35.8,29.6,30.32,SW,225,1.1,2.7,78,0.00,,,0.01,WUHU216HW,2013-01-13 00:08:00,
2013-01-12 16:13:00,35.6,29.7,30.32,SW,225,1.3,2.5,79,0.00,,,0.01,WUHU216HW,2013-01-13 00:13:00,
2013-01-12 16:18:00,35.3,29.3,30.32,SSW,203,2.5,2.9,79,0.00,,,0.01,WUHU216HW,2013-01-13 00:18:00,
2013-01-12 16:23:00,35.1,29.2,30.32,SSW,203,2.5,2.9,79,0.00,,,0.01,WUHU216HW,2013-01-13 00:23:00,
2013-01-12 16:28:00,34.7,29.2,30.32,SSW,203,2.2,3.4,80,0.00,,,0.01,WUHU216HW,2013-01-13 00:28:00,
2013-01-12 16:33:00,34.6,29.0,30.32,SSW,203,2.9,3.4,80,0.00,,,0.01,WUHU216HW,2013-01-13 00:33:00,
2013-01-12 16:38:00,34.2,28.9,30.32,SSW,203,4.0,4.5,81,0.00,,,0.01,WUHU216HW,2013-01-13 00:38:00,
2013-01-12 16:43:00,33.8,28.5,30.32,SSW,203,4.0,4.5,81,0.00,,,0.01,WUHU216HW,2013-01-13 00:43:00,
2013-01-12 16:48:00,33.7,28.4,30.32,South,180,4.3,4.7,81,0.00,,,0.01,WUHU216HW,2013-01-13 00:48:00,
2013-01-12 16:53:00,33.5,28.5,30.32,South,180,3.4,4.7,82,0.00,,,0.01,WUHU216HW,2013-01-13 00:53:00,
2013-01-12 16:58:00,33.3,28.6,30.32,SSW,203,3.8,4.0,83,0.00,,,0.01,WUHU216HW,2013-01-13 00:58:00,
2013-01-12 17:03:00,33.3,28.6,30.32,SSW,203,1.1,4.0,83,0.00,,,0.01,WUHU216HW,2013-01-13 01:03:00,
2013-01-12 17:08:00,33.3,28.6,30.32,South,180,3.4,3.8,83,0.00,,,0.01,WUHU216HW,2013-01-13 01:08:00,
2013-01-12 17:13:00,33.3,28.6,30.32,South,180,1.8,3.4,83,0.00,,,0.01,WUHU216HW,2013-01-13 01:13:00,
2013-01-12 17:18:00,33.3,28.6,30.32,SSW,203,1.8,2.5,83,0.00,,,0.01,WUHU216HW,2013-01-13 01:18:00,
2013-01-12 17:23:00,33.3,28.6,30.32,South,180,2.2,2.5,83,0.00,,,0.01,WUHU216HW,2013-01-13 01:23:00,
2013-01-12 17:28:00,33.3,28.6,30.32,SW,225,2.5,2.7,83,0.00,,,0.01,WUHU216HW,2013-01-13 01:28:00,
2013-01-12 17:33:00,33.3,28.6,30.32,SSW,203,2.5,2.7,83,0.00,,,0.01,WUHU216HW,2013-01-13 01:33:00,
2013-01-12 17:38:00,33.3,28.6,30.32,SW,225,1.8,3.1,83,0.00,,,0.01,WUHU216HW,2013-01-13 01:38:00,
2013-01-12 17:43:00,33.3,28.6,30.32,SW,225,3.6,3.6,83,0.00,,,0.01,WUHU216HW,2013-01-13 01:43:00,
2013-01-12 17:48:00,33.5,28.8,30.32,SSW,203,1.6,3.6,83,0.00,,,0.01,WUHU216HW,2013-01-13 01:48:00,
2013-01-12 17:53:00,33.5,28.8,30.32,SSW,203,0.4,2.7,83,0.00,,,0.01,WUHU216HW,2013-01-13 01:53:00,
2013-01-12 17:58:00,33.5,28.5,30.33,WSW,248,1.8,2.0,82,0.00,,,0.01,WUHU216HW,2013-01-13 01:58:00,
2013-01-12 18:03:00,33.5,28.3,30.33,SSW,203,2.2,2.2,81,0.00,,,0.01,WUHU216HW,2013-01-13 02:03:00,
2013-01-12 18:08:00,33.7,28.4,30.33,SW,225,2.7,2.7,81,0.00,,,0.01,WUHU216HW,2013-01-13 02:08:00,
2013-01-12 18:13:00,33.5,28.3,30.33,SW,225,2.0,2.7,81,0.00,,,0.01,WUHU216HW,2013-01-13 02:13:00,
2013-01-12 18:18:00,33.3,28.1,30.33,SSW,203,2.5,2.5,81,0.00,,,0.01,WUHU216HW,2013-01-13 02:18:00,
2013-01-12 18:23:00,33.1,28.2,30.33,SW,225,3.4,3.4,82,0.00,,,0.01,WUHU216HW,2013-01-13 02:23:00,
2013-01-12 18:28:00,32.8,27.9,30.34,SSW,203,2.9,3.4,82,0.00,,,0.01,WUHU216HW,2013-01-13 02:28:00,
2013-01-12 18:33:00,32.6,28.0,30.34,SSW,203,2.5,3.4,83,0.00,,,0.01,WUHU216HW,2013-01-13 02:33:00,
2013-01-12 18:38:00,32.4,27.8,30.34,SSW,203,3.6,3.6,83,0.00,,,0.01,WUHU216HW,2013-01-13 02:38:00,
2013-01-12 18:43:00,32.2,27.6,30.34,SSW,203,2.5,3.6,83,0.00,,,0.01,WUHU216HW,2013-01-13 02:43:00,
2013-01-12 18:48:00,32.2,28.0,30.34,SSW,203,2.5,3.4,84,0.00,,,0.01,WUHU216HW,2013-01-13 02:48:00,
2013-01-12 18:53:00,32.2,28.0,30.34,SSW,203,2.2,2.9,84,0.00,,,0.01,WUHU216HW,2013-01-13 02:53:00,
2013-01-12 18:58:00,32.2,28.0,30.34,SSW,203,2.2,2.9,84,0.00,,,0.01,WUHU216HW,2013-01-13 02:58:00,
2013-01-12 19:03:00,32.2,28.0,30.34,SSW,203,1.8,2.5,84,0.00,,,0.01,WUHU216HW,2013-01-13 03:03:00,
2013-01-12 19:08:00,32.2,28.0,30.34,SSW,203,1.6,2.7,84,0.00,,,0.01,WUHU216HW,2013-01-13 03:08:00,
2013-01-12 19:13:00,32.2,28.0,30.34,SSW,203,3.4,3.4,84,0.00,,,0.01,WUHU216HW,2013-01-13 03:13:00,
2013-01-12 19:18:00,32.2,28.0,30.34,SSW,203,1.3,3.4,84,0.00,,,0.01,WUHU216HW,2013-01-13 03:18:00,
2013-01-12 19:23:00,32.2,28.0,30.34,South,180,2.0,2.9,84,0.00,,,0.01,WUHU216HW,2013-01-13 03:23:00,
2013-01-12 19:28:00,32.0,28.1,30.34,SW,225,2.7,3.1,85,0.00,,,0.01,WUHU216HW,2013-01-13 03:28:00,
2013-01-12 19:33:00,31.9,27.9,30.34,SSW,203,2.5,3.4,85,0.00,,,0.01,WUHU216HW,2013-01-13 03:33:00,
2013-01-12 19:38:00,31.7,27.7,30.34,SSW,203,2.5,3.4,85,0.00,,,0.01,WUHU216HW,2013-01-13 03:38:00,
2013-01-12 19:43:00,31.5,27.5,30.34,SSW,203,3.4,3.4,85,0.00,,,0.01,WUHU216HW,2013-01-13 03:43:00,
2013-01-12 19:48:00,31.3,27.4,30.34,SSW,203,3.1,3.6,85,0.00,,,0.01,WUHU216HW,2013-01-13 03:48:00,
2013-01-12 19:53:00,31.1,27.2,30.34,South,180,3.8,3.8,85,0.00,,,0.01,WUHU216HW,2013-01-13 03:53:00,
2013-01-12 19:58:00,31.0,27.0,30.34,SSW,203,2.0,4.0,85,0.00,,,0.01,WUHU216HW,2013-01-13 03:58:00,
2013-01-12 20:03:00,30.8,27.1,30.34,SSW,203,2.7,4.0,86,0.00,,,0.01,WUHU216HW,2013-01-13 04:03:00,
2013-01-12 20:08:00,30.6,26.9,30.34,South,180,3.6,3.6,86,0.00,,,0.01,WUHU216HW,2013-01-13 04:08:00,
2013-01-12 20:13:00,30.6,26.9,30.33,SSW,203,3.4,4.0,86,0.00,,,0.01,WUHU216HW,2013-01-13 04:13:00,
2013-01-12 20:18:00,30.4,26.7,30.34,South,180,1.8,4.0,86,0.00,,,0.01,WUHU216HW,2013-01-13 04:18:00,
2013-01-12 20:23:00,30.4,26.7,30.34,South,180,2.7,3.4,86,0.00,,,0.01,WUHU216HW,2013-01-13 04:23:00,
2013-01-12 20:28:00,30.2,26.6,30.34,SSW,203,2.5,2.9,86,0.00,,,0.01,WUHU216HW,2013-01-13 04:28:00,
2013-01-12 20:33:00,30.1,26.4,30.34,SSW,203,3.8,4.0,86,0.00,,,0.01,WUHU216HW,2013-01-13 04:33:00,
2013-01-12 20:38:00,29.9,26.5,30.34,SSW,203,2.5,4.0,87,0.00,,,0.01,WUHU216HW,2013-01-13 04:38:00,
2013-01-12 20:43:00,29.9,26.2,30.35,South,180,3.6,3.6,86,0.00,,,0.01,WUHU216HW,2013-01-13 04:43:00,
2013-01-12 20:48:00,29.5,25.8,30.34,SSW,203,4.7,4.7,86,0.00,,,0.01,WUHU216HW,2013-01-13 04:48:00,
2013-01-12 20:53:00,29.5,26.1,30.34,SSW,203,4.5,5.4,87,0.00,,,0.01,WUHU216HW,2013-01-13 04:53:00,
2013-01-12 20:58:00,29.5,26.1,30.34,SSW,203,2.0,5.4,87,0.00,,,0.01,WUHU216HW,2013-01-13 04:58:00,
2013-01-12 21:00:00,29.5,26.1,30.35,South,180,1.1,5.4,87,0.00,,,0.01,WUHU216HW,2013-01-13 05:00:00,
2013-01-12 21:01:00,29.5,26.1,30.34,South,180,0.0,5.4,87,0.00,,,0.01,WUHU216HW,2013-01-13 05:01:00,
2013-01-12 21:03:00,29.3,25.9,30.34,South,180,0.0,5.1,87,0.00,,,0.01,WUHU216HW,2013-01-13 05:03:00,
2013-01-12 21:08:00,29.3,25.9,30.34,SSW,203,3.4,3.4,87,0.00,,,0.01,WUHU216HW,2013-01-13 05:08:00,
2013-01-12 21:13:00,29.2,25.7,30.33,SSW,203,4.0,4.5,87,0.00,,,0.01,WUHU216HW,2013-01-13 05:13:00,
2013-01-12 21:18:00,29.2,25.7,30.33,South,180,0.7,4.5,87,0.00,,,0.01,WUHU216HW,2013-01-13 05:18:00,
2013-01-12 21:23:00,29.2,25.7,30.34,SSW,203,3.8,3.8,87,0.00,,,0.01,WUHU216HW,2013-01-13 05:23:00,
2013-01-12 21:28:00,29.0,25.6,30.34,SSW,203,4.3,5.4,87,0.00,,,0.01,WUHU216HW,2013-01-13 05:28:00,
2013-01-12 21:33:00,28.8,25.8,30.34,South,180,4.5,5.4,88,0.00,,,0.01,WUHU216HW,2013-01-13 05:33:00,
2013-01-12 21:38:00,28.8,25.8,30.34,SSW,203,4.9,4.9,88,0.00,,,0.01,WUHU216HW,2013-01-13 05:38:00,
2013-01-12 21:43:00,28.8,25.8,30.34,SSW,203,5.8,5.8,88,0.00,,,0.01,WUHU216HW,2013-01-13 05:43:00,
2013-01-12 21:48:00,28.6,25.6,30.35,South,180,4.9,5.8,88,0.00,,,0.01,WUHU216HW,2013-01-13 05:48:00,
2013-01-12 21:53:00,28.4,25.4,30.34,SSW,203,4.7,5.4,88,0.00,,,0.01,WUHU216HW,2013-01-13 05:53:00,
2013-01-12 21:58:00,28.4,25.4,30.35,South,180,4.9,5.4,88,0.00,,,0.01,WUHU216HW,2013-01-13 05:58:00,
2013-01-12 22:03:00,28.4,25.4,30.35,SSW,203,5.6,5.6,88,0.00,,,0.01,WUHU216HW,2013-01-13 06:03:00,
2013-01-12 22:08:00,28.4,25.4,30.35,SSW,203,4.0,5.6,88,0.00,,,0.01,WUHU216HW,2013-01-13 06:08:00,
2013-01-12 22:13:00,28.3,25.5,30.36,South,180,4.0,5.1,89,0.00,,,0.01,WUHU216HW,2013-01-13 06:13:00,
2013-01-12 22:18:00,28.3,25.5,30.36,SSW,203,3.4,5.1,89,0.00,,,0.01,WUHU216HW,2013-01-13 06:18:00,
2013-01-12 22:23:00,28.1,25.3,30.36,South,180,2.5,3.4,89,0.00,,,0.01,WUHU216HW,2013-01-13 06:23:00,
2013-01-12 22:28:00,28.1,25.3,30.36,South,180,4.0,4.0,89,0.00,,,0.01,WUHU216HW,2013-01-13 06:28:00,
2013-01-12 22:33:00,28.1,25.3,30.36,South,180,3.6,4.3,89,0.00,,,0.01,WUHU216HW,2013-01-13 06:33:00,
2013-01-12 22:38:00,27.9,25.1,30.36,SSW,203,3.8,4.5,89,0.00,,,0.01,WUHU216HW,2013-01-13 06:38:00,
2013-01-12 22:43:00,27.9,25.1,30.36,SSW,203,4.5,4.7,89,0.00,,,0.01,WUHU216HW,2013-01-13 06:43:00,
2013-01-12 22:48:00,27.9,25.1,30.36,South,180,5.1,5.1,89,0.00,,,0.01,WUHU216HW,2013-01-13 06:48:00,
2013-01-12 22:53:00,27.7,25.2,30.36,South,180,4.7,5.1,90,0.00,,,0.01,WUHU216HW,2013-01-13 06:53:00,
2013-01-12 22:58:00,27.7,25.2,30.36,South,180,5.1,5.1,90,0.00,,,0.01,WUHU216HW,2013-01-13 06:58:00,
2013-01-12 23:03:00,27.7,25.2,30.36,SSW,203,5.1,5.1,90,0.00,,,0.01,WUHU216HW,2013-01-13 07:03:00,
2013-01-12 23:08:00,27.7,25.2,30.36,SSW,203,4.0,5.4,90,0.00,,,0.01,WUHU216HW,2013-01-13 07:08:00,
2013-01-12 23:13:00,27.7,25.2,30.36,SSW,203,5.1,5.4,90,0.00,,,0.01,WUHU216HW,2013-01-13 07:13:00,
2013-01-12 23:18:00,27.7,25.2,30.37,South,180,5.4,5.4,90,0.00,,,0.01,WUHU216HW,2013-01-13 07:18:00,
2013-01-12 23:23:00,27.7,25.2,30.37,South,180,4.7,5.6,90,0.00,,,0.01,WUHU216HW,2013-01-13 07:23:00,
2013-01-12 23:28:00,27.7,25.5,30.37,SSW,203,5.4,5.6,91,0.00,,,0.01,WUHU216HW,2013-01-13 07:28:00,
2013-01-12 23:33:00,27.7,25.5,30.37,South,180,5.4,5.6,91,0.00,,,0.01,WUHU216HW,2013-01-13 07:33:00,
2013-01-12 23:38:00,27.9,25.7,30.36,South,180,3.4,5.6,91,0.00,,,0.01,WUHU216HW,2013-01-13 07:38:00,
2013-01-12 23:43:00,27.9,25.7,30.36,South,180,4.0,5.1,91,0.00,,,0.01,WUHU216HW,2013-01-13 07:43:00,
2013-01-12 23:48:00,27.9,25.7,30.36,South,180,3.8,4.5,91,0.00,,,0.01,WUHU216HW,2013-01-13 07:48:00,
2013-01-12 23:53:00,27.7,25.5,30.36,SSW,203,3.4,4.5,91,0.00,,,0.01,WUHU216HW,2013-01-13 07:53:00,
2013-01-12 23:58:00,27.7,25.5,30.36,SSW,203,2.5,4.5,91,0.00,,,0.01,WUHU216HW,2013-01-13 07:58:00,